PWSweather.com
Personal Weather Stations
Station Observations
KAZSIERR7
Canyon De Flores, Sierra Vista, AZ 85650

Canyon De FloresSierra Vista, AZ 85650

Lat: 31.5, Lon: -110.26

Elevation: 4645

Station Type: LaCrosse WS-3610 & Boltek Lightning Detector

http://www.lightningring.com/weather/

High Low Average
Temperature 61.5°F16.4°F 33.9°F1.1°F 48.4°F9.1°F
Dew Point 27.9°F-2.3°F 4.9°F-15.1°F 21.9°F-5.6°F
Winds 14.3 mph NNW23.0 mph NNW Calm Calm 2.6 mph 4.2 mph
Wind Gusts 52.6 mph84.7 mph -- 10.9 mph17.5 mph
Humidity 56% 25% 36%
Pressure 30.19 in1022.40 in 30.04 in1017.30 in -
Precipitation 0.00 in0.00 in - -
Hour Temp Dew Point Humidity Winds Wind Gusts Pressure Precip Precip Rate Daily Precip Total
12:06 AM 40.2°F4.6°C 23.0°F-5.0°C 50% Calm Calm -- 30.10 in1019.3 mb 0.00 in0.0 mm 0.00 in/hr0.0 mm/hr 0.00 in0.0 mm
12:16 AM 40.2°F4.6°C 23.0°F-5.0°C 50% Calm Calm -- 30.09 in1019.0 mb 0.00 in0.0 mm 0.00 in/hr0.0 mm/hr 0.00 in0.0 mm
12:27 AM 40.8°F4.9°C 23.0°F-5.0°C 49% Calm Calm -- 30.09 in1019.0 mb 0.00 in0.0 mm 0.00 in/hr0.0 mm/hr 0.00 in0.0 mm
12:37 AM 40.9°F4.9°C 23.1°F-4.9°C 49% Calm Calm -- 30.08 in1018.6 mb 0.00 in0.0 mm 0.00 in/hr0.0 mm/hr 0.00 in0.0 mm
12:48 AM 40.2°F4.6°C 23.0°F-5.0°C 50% Calm Calm -- 30.07 in1018.3 mb 0.00 in0.0 mm 0.00 in/hr0.0 mm/hr 0.00 in0.0 mm
12:58 AM 41.8°F5.4°C 23.5°F-4.7°C 48% Calm Calm -- 30.07 in1018.3 mb 0.00 in0.0 mm 0.00 in/hr0.0 mm/hr 0.00 in0.0 mm
01:09 AM 42.7°F5.9°C 23.2°F-4.9°C 46% 1.2 mph S1.9 kmh S 1.6 mph2.6 kmh 30.06 in1017.9 mb 0.00 in0.0 mm 0.00 in/hr0.0 mm/hr 0.00 in0.0 mm
01:19 AM 42.4°F5.8°C 23.0°F-5.0°C 46% Calm Calm -- 30.06 in1017.9 mb 0.00 in0.0 mm 0.00 in/hr0.0 mm/hr 0.00 in0.0 mm
01:30 AM 40.9°F4.9°C 23.1°F-4.9°C 49% Calm Calm -- 30.06 in1017.9 mb 0.00 in0.0 mm 0.00 in/hr0.0 mm/hr 0.00 in0.0 mm
01:40 AM 41.5°F5.3°C 23.7°F-4.6°C 49% Calm Calm -- 30.07 in1018.3 mb 0.00 in0.0 mm 0.00 in/hr0.0 mm/hr 0.00 in0.0 mm
01:51 AM 42.0°F5.6°C 24.2°F-4.3°C 49% Calm Calm -- 30.06 in1017.9 mb 0.00 in0.0 mm 0.00 in/hr0.0 mm/hr 0.00 in0.0 mm
02:01 AM 43.8°F6.6°C 26.3°F-3.2°C 50% Calm Calm -- 30.06 in1017.9 mb 0.00 in0.0 mm 0.00 in/hr0.0 mm/hr 0.00 in0.0 mm
02:12 AM 46.3°F7.9°C 26.0°F-3.3°C 45% Calm Calm 0.4 mph0.6 kmh 30.06 in1017.9 mb 0.00 in0.0 mm 0.00 in/hr0.0 mm/hr 0.00 in0.0 mm
02:22 AM 46.0°F7.8°C 24.6°F-4.1°C 43% Calm Calm -- 30.06 in1017.9 mb 0.00 in0.0 mm 0.00 in/hr0.0 mm/hr 0.00 in0.0 mm
02:33 AM 42.7°F5.9°C 24.3°F-4.3°C 48% Calm Calm 6.6 mph10.6 kmh 30.06 in1017.9 mb 0.00 in0.0 mm 0.00 in/hr0.0 mm/hr 0.00 in0.0 mm
02:43 AM 41.5°F5.3°C 24.7°F-4.1°C 51% Calm Calm 2.6 mph4.2 kmh 30.05 in1017.6 mb 0.00 in0.0 mm 0.00 in/hr0.0 mm/hr 0.00 in0.0 mm
02:54 AM 40.6°F4.8°C 24.3°F-4.3°C 52% Calm Calm -- 30.06 in1017.9 mb 0.00 in0.0 mm 0.00 in/hr0.0 mm/hr 0.00 in0.0 mm
03:04 AM 40.2°F4.6°C 24.4°F-4.2°C 53% Calm Calm -- 30.06 in1017.9 mb 0.00 in0.0 mm 0.00 in/hr0.0 mm/hr 0.00 in0.0 mm
03:15 AM 40.2°F4.6°C 24.4°F-4.2°C 53% Calm Calm -- 30.05 in1017.6 mb 0.00 in0.0 mm 0.00 in/hr0.0 mm/hr 0.00 in0.0 mm
03:25 AM 40.0°F4.4°C 24.2°F-4.3°C 53% Calm Calm -- 30.06 in1017.9 mb 0.00 in0.0 mm 0.00 in/hr0.0 mm/hr 0.00 in0.0 mm
03:35 AM 39.9°F4.4°C 24.6°F-4.1°C 54% Calm Calm -- 30.05 in1017.6 mb 0.00 in0.0 mm 0.00 in/hr0.0 mm/hr 0.00 in0.0 mm
03:46 AM 42.7°F5.9°C 25.3°F-3.7°C 50% Calm Calm -- 30.06 in1017.9 mb 0.00 in0.0 mm 0.00 in/hr0.0 mm/hr 0.00 in0.0 mm
03:56 AM 42.0°F5.6°C 24.7°F-4.1°C 50% Calm Calm -- 30.06 in1017.9 mb 0.00 in0.0 mm 0.00 in/hr0.0 mm/hr 0.00 in0.0 mm
04:07 AM 43.5°F6.4°C 25.0°F-3.9°C 48% Calm Calm 2.2 mph3.5 kmh 30.06 in1017.9 mb 0.00 in0.0 mm 0.00 in/hr0.0 mm/hr 0.00 in0.0 mm
04:17 AM 41.3°F5.2°C 24.5°F-4.2°C 51% Calm Calm -- 30.05 in1017.6 mb 0.00 in0.0 mm 0.00 in/hr0.0 mm/hr 0.00 in0.0 mm
04:28 AM 40.2°F4.6°C 24.9°F-3.9°C 54% Calm Calm -- 30.05 in1017.6 mb 0.00 in0.0 mm 0.00 in/hr0.0 mm/hr 0.00 in0.0 mm
04:38 AM 39.7°F4.3°C 25.3°F-3.7°C 56% Calm Calm -- 30.05 in1017.6 mb 0.00 in0.0 mm 0.00 in/hr0.0 mm/hr 0.00 in0.0 mm
04:49 AM 39.5°F4.2°C 25.1°F-3.8°C 56% Calm Calm -- 30.05 in1017.6 mb 0.00 in0.0 mm 0.00 in/hr0.0 mm/hr 0.00 in0.0 mm
05:00 AM 41.5°F5.3°C 24.7°F-4.1°C 51% Calm Calm -- 30.04 in1017.3 mb 0.00 in0.0 mm 0.00 in/hr0.0 mm/hr 0.00 in0.0 mm
05:10 AM 45.3°F7.4°C 24.5°F-4.2°C 44% Calm Calm 1.2 mph1.9 kmh 30.04 in1017.3 mb 0.00 in0.0 mm 0.00 in/hr0.0 mm/hr 0.00 in0.0 mm
05:21 AM 47.4°F8.6°C 23.5°F-4.7°C 39% Calm Calm -- 30.04 in1017.3 mb 0.00 in0.0 mm 0.00 in/hr0.0 mm/hr 0.00 in0.0 mm
05:31 AM 48.5°F9.2°C 25.1°F-3.8°C 40% Calm Calm -- 30.04 in1017.3 mb 0.00 in0.0 mm 0.00 in/hr0.0 mm/hr 0.00 in0.0 mm
05:41 AM 48.9°F9.4°C 26.0°F-3.3°C 41% 0.9 mph W1.4 kmh W 17.4 mph28.0 kmh 30.05 in1017.6 mb 0.00 in0.0 mm 0.00 in/hr0.0 mm/hr 0.00 in0.0 mm
05:52 AM 48.3°F9.1°C 25.5°F-3.6°C 41% 3.6 mph NW5.8 kmh NW 4.8 mph7.7 kmh 30.05 in1017.6 mb 0.00 in0.0 mm 0.00 in/hr0.0 mm/hr 0.00 in0.0 mm
06:02 AM 48.5°F9.2°C 25.1°F-3.8°C 40% 1.2 mph W1.9 kmh W 4.8 mph7.7 kmh 30.05 in1017.6 mb 0.00 in0.0 mm 0.00 in/hr0.0 mm/hr 0.00 in0.0 mm
06:13 AM 49.2°F9.6°C 24.5°F-4.2°C 38% Calm Calm 1.2 mph1.9 kmh 30.05 in1017.6 mb 0.00 in0.0 mm 0.00 in/hr0.0 mm/hr 0.00 in0.0 mm
06:23 AM 48.7°F9.3°C 24.0°F-4.4°C 38% Calm Calm 15.6 mph25.1 kmh 30.05 in1017.6 mb 0.00 in0.0 mm 0.00 in/hr0.0 mm/hr 0.00 in0.0 mm
06:34 AM 48.7°F9.3°C 24.0°F-4.4°C 38% 4.3 mph WNW6.9 kmh WNW 8.0 mph12.9 kmh 30.06 in1017.9 mb 0.00 in0.0 mm 0.00 in/hr0.0 mm/hr 0.00 in0.0 mm
06:44 AM 48.7°F9.3°C 24.0°F-4.4°C 38% 4.9 mph WSW7.9 kmh WSW 13.8 mph22.2 kmh 30.07 in1018.3 mb 0.00 in0.0 mm 0.00 in/hr0.0 mm/hr 0.00 in0.0 mm
06:55 AM 48.1°F8.9°C 23.5°F-4.7°C 38% Calm Calm -- 30.08 in1018.6 mb 0.00 in0.0 mm 0.00 in/hr0.0 mm/hr 0.00 in0.0 mm
07:05 AM 48.6°F9.2°C 23.3°F-4.8°C 37% 3.0 mph NNW4.8 kmh NNW 12.4 mph20.0 kmh 30.08 in1018.6 mb 0.00 in0.0 mm 0.00 in/hr0.0 mm/hr 0.00 in0.0 mm
07:16 AM 48.4°F9.1°C 23.1°F-4.9°C 37% 1.2 mph NW1.9 kmh NW 4.0 mph6.4 kmh 30.08 in1018.6 mb 0.00 in0.0 mm 0.00 in/hr0.0 mm/hr 0.00 in0.0 mm
07:26 AM 48.0°F8.9°C 23.4°F-4.8°C 38% Calm Calm 1.6 mph2.6 kmh 30.09 in1019.0 mb 0.00 in0.0 mm 0.00 in/hr0.0 mm/hr 0.00 in0.0 mm
07:37 AM 48.3°F9.1°C 23.6°F-4.7°C 38% Calm Calm -- 30.10 in1019.3 mb 0.00 in0.0 mm 0.00 in/hr0.0 mm/hr 0.00 in0.0 mm
07:47 AM 50.0°F10.0°C 23.8°F-4.6°C 36% 1.2 mph WNW1.9 kmh WNW 4.0 mph6.4 kmh 30.10 in1019.3 mb 0.00 in0.0 mm 0.00 in/hr0.0 mm/hr 0.00 in0.0 mm
07:58 AM 51.5°F10.8°C 23.8°F-4.6°C 34% Calm Calm 7.6 mph12.2 kmh 30.10 in1019.3 mb 0.00 in0.0 mm 0.00 in/hr0.0 mm/hr 0.00 in0.0 mm
08:08 AM 51.3°F10.7°C 23.7°F-4.6°C 34% Calm Calm -- 30.10 in1019.3 mb 0.00 in0.0 mm 0.00 in/hr0.0 mm/hr 0.00 in0.0 mm
08:19 AM 53.2°F11.8°C 23.9°F-4.5°C 32% Calm Calm -- 30.11 in1019.6 mb 0.00 in0.0 mm 0.00 in/hr0.0 mm/hr 0.00 in0.0 mm
08:29 AM 57.4°F14.1°C 25.2°F-3.8°C 29% Calm Calm 1.2 mph1.9 kmh 30.11 in1019.6 mb 0.00 in0.0 mm 0.00 in/hr0.0 mm/hr 0.00 in0.0 mm
08:39 AM 60.8°F16.0°C 25.5°F-3.6°C 26% Calm Calm 5.8 mph9.3 kmh 30.12 in1020.0 mb 0.00 in0.0 mm 0.00 in/hr0.0 mm/hr 0.00 in0.0 mm
08:50 AM 60.1°F15.6°C 25.0°F-3.9°C 26% 1.2 mph 1.9 kmh 2.2 mph3.5 kmh 30.12 in1020.0 mb 0.00 in0.0 mm 0.00 in/hr0.0 mm/hr 0.00 in0.0 mm
09:00 AM 57.5°F14.2°C 24.4°F-4.2°C 28% 2.3 mph NW3.7 kmh NW 8.0 mph12.9 kmh 30.12 in1020.0 mb 0.00 in0.0 mm 0.00 in/hr0.0 mm/hr 0.00 in0.0 mm
09:11 AM 58.4°F14.7°C 24.4°F-4.2°C 27% 4.5 mph WNW7.2 kmh WNW 10.2 mph16.4 kmh 30.12 in1020.0 mb 0.00 in0.0 mm 0.00 in/hr0.0 mm/hr 0.00 in0.0 mm
09:21 AM 58.4°F14.7°C 24.3°F-4.3°C 27% 1.4 mph WSW2.3 kmh WSW 5.8 mph9.3 kmh 30.12 in1020.0 mb 0.00 in0.0 mm 0.00 in/hr0.0 mm/hr 0.00 in0.0 mm
09:32 AM 59.3°F15.2°C 25.2°F-3.8°C 27% 1.2 mph NNE1.9 kmh NNE 6.2 mph10.0 kmh 30.13 in1020.3 mb 0.00 in0.0 mm 0.00 in/hr0.0 mm/hr 0.00 in0.0 mm
09:42 AM 57.6°F14.2°C 24.5°F-4.2°C 28% 6.4 mph NNW10.3 kmh NNW 27.6 mph44.4 kmh 30.12 in1020.0 mb 0.00 in0.0 mm 0.00 in/hr0.0 mm/hr 0.00 in0.0 mm
09:53 AM 57.5°F14.2°C 24.4°F-4.2°C 28% 2.0 mph NW3.2 kmh NW 27.6 mph44.4 kmh 30.13 in1020.3 mb 0.00 in0.0 mm 0.00 in/hr0.0 mm/hr 0.00 in0.0 mm
10:03 AM 60.2°F15.7°C 25.9°F-3.4°C 27% 3.0 mph WNW4.8 kmh WNW 4.0 mph6.4 kmh 30.12 in1020.0 mb 0.00 in0.0 mm 0.00 in/hr0.0 mm/hr 0.00 in0.0 mm
10:14 AM 59.7°F15.4°C 26.3°F-3.2°C 28% 3.2 mph NNW5.1 kmh NNW 7.0 mph11.3 kmh 30.12 in1020.0 mb 0.00 in0.0 mm 0.00 in/hr0.0 mm/hr 0.00 in0.0 mm
10:24 AM 61.2°F16.2°C 25.8°F-3.4°C 26% 3.6 mph WNW5.8 kmh WNW 6.6 mph10.6 kmh 30.13 in1020.3 mb 0.00 in0.0 mm 0.00 in/hr0.0 mm/hr 0.00 in0.0 mm
10:35 AM 58.6°F14.8°C 26.2°F-3.2°C 29% 1.9 mph WNW3.1 kmh WNW 26.8 mph43.1 kmh 30.13 in1020.3 mb 0.00 in0.0 mm 0.00 in/hr0.0 mm/hr 0.00 in0.0 mm
10:45 AM 58.5°F14.7°C 25.3°F-3.7°C 28% 4.8 mph NW7.7 kmh NW 29.8 mph48.0 kmh 30.12 in1020.0 mb 0.00 in0.0 mm 0.00 in/hr0.0 mm/hr 0.00 in0.0 mm
10:56 AM 57.5°F14.2°C 25.2°F-3.8°C 29% 2.6 mph ENE4.2 kmh ENE 30.8 mph49.6 kmh 30.12 in1020.0 mb 0.00 in0.0 mm 0.00 in/hr0.0 mm/hr 0.00 in0.0 mm
11:06 AM 58.7°F14.8°C 26.3°F-3.2°C 29% 5.8 mph NW9.3 kmh NW 14.6 mph23.5 kmh 30.11 in1019.6 mb 0.00 in0.0 mm 0.00 in/hr0.0 mm/hr 0.00 in0.0 mm
11:17 AM 59.3°F15.2°C 26.0°F-3.3°C 28% 6.0 mph W9.7 kmh W 9.2 mph14.8 kmh 30.11 in1019.6 mb 0.00 in0.0 mm 0.00 in/hr0.0 mm/hr 0.00 in0.0 mm
11:27 AM 57.9°F14.4°C 25.6°F-3.6°C 29% 8.2 mph NW13.2 kmh NW 21.8 mph35.1 kmh 30.10 in1019.3 mb 0.00 in0.0 mm 0.00 in/hr0.0 mm/hr 0.00 in0.0 mm
11:37 AM 58.1°F14.5°C 25.7°F-3.5°C 29% 4.4 mph W7.1 kmh W 27.2 mph43.8 kmh 30.10 in1019.3 mb 0.00 in0.0 mm 0.00 in/hr0.0 mm/hr 0.00 in0.0 mm
11:48 AM 58.7°F14.8°C 26.3°F-3.2°C 29% 7.0 mph NW11.3 kmh NW 23.6 mph38.0 kmh 30.09 in1019.0 mb 0.00 in0.0 mm 0.00 in/hr0.0 mm/hr 0.00 in0.0 mm
11:58 AM 58.8°F14.9°C 26.4°F-3.1°C 29% 4.0 mph NNE6.4 kmh NNE 11.6 mph18.7 kmh 30.08 in1018.6 mb 0.00 in0.0 mm 0.00 in/hr0.0 mm/hr 0.00 in0.0 mm
12:09 PM 59.4°F15.2°C 26.1°F-3.3°C 28% 7.5 mph N12.1 kmh N 18.6 mph29.9 kmh 30.08 in1018.6 mb 0.00 in0.0 mm 0.00 in/hr0.0 mm/hr 0.00 in0.0 mm
12:19 PM 61.5°F16.4°C 25.2°F-3.8°C 25% 1.7 mph WSW2.7 kmh WSW 22.8 mph36.7 kmh 30.07 in1018.3 mb 0.00 in0.0 mm 0.00 in/hr0.0 mm/hr 0.00 in0.0 mm
12:30 PM 60.0°F15.6°C 25.8°F-3.4°C 27% 5.8 mph NW9.3 kmh NW 17.8 mph28.6 kmh 30.07 in1018.3 mb 0.00 in0.0 mm 0.00 in/hr0.0 mm/hr 0.00 in0.0 mm
12:40 PM 59.8°F15.4°C 26.4°F-3.1°C 28% 5.3 mph NNW8.5 kmh NNW 20.0 mph32.2 kmh 30.07 in1018.3 mb 0.00 in0.0 mm 0.00 in/hr0.0 mm/hr 0.00 in0.0 mm
12:51 PM 58.7°F14.8°C 27.9°F-2.3°C 31% 11.2 mph NW18.0 kmh NW 34.8 mph56.0 kmh 30.07 in1018.3 mb 0.00 in0.0 mm 0.00 in/hr0.0 mm/hr 0.00 in0.0 mm
01:01 PM 58.5°F14.7°C 27.7°F-2.4°C 31% 3.0 mph W4.8 kmh W 32.2 mph51.8 kmh 30.07 in1018.3 mb 0.00 in0.0 mm 0.00 in/hr0.0 mm/hr 0.00 in0.0 mm
01:12 PM 58.5°F14.7°C 26.1°F-3.3°C 29% 8.5 mph NNW13.7 kmh NNW 34.8 mph56.0 kmh 30.07 in1018.3 mb 0.00 in0.0 mm 0.00 in/hr0.0 mm/hr 0.00 in0.0 mm
01:22 PM 58.4°F14.7°C 27.7°F-2.4°C 31% 5.0 mph NNW8.0 kmh NNW 38.0 mph61.2 kmh 30.06 in1017.9 mb 0.00 in0.0 mm 0.00 in/hr0.0 mm/hr 0.00 in0.0 mm
01:33 PM 57.8°F14.3°C 27.2°F-2.7°C 31% 8.8 mph NNW14.2 kmh NNW 41.0 mph66.0 kmh 30.05 in1017.6 mb 0.00 in0.0 mm 0.00 in/hr0.0 mm/hr 0.00 in0.0 mm
01:43 PM 57.7°F14.3°C 27.0°F-2.8°C 31% 11.3 mph NW18.2 kmh NW 38.0 mph61.2 kmh 30.05 in1017.6 mb 0.00 in0.0 mm 0.00 in/hr0.0 mm/hr 0.00 in0.0 mm
01:54 PM 57.9°F14.4°C 27.2°F-2.7°C 31% 5.1 mph NE8.2 kmh NE 31.2 mph50.2 kmh 30.05 in1017.6 mb 0.00 in0.0 mm 0.00 in/hr0.0 mm/hr 0.00 in0.0 mm
02:04 PM 57.5°F14.2°C 26.0°F-3.3°C 30% 7.4 mph ENE11.9 kmh ENE 36.2 mph58.3 kmh 30.05 in1017.6 mb 0.00 in0.0 mm 0.00 in/hr0.0 mm/hr 0.00 in0.0 mm
02:15 PM 57.5°F14.2°C 25.3°F-3.7°C 29% 3.3 mph NE5.3 kmh NE 40.2 mph64.7 kmh 30.05 in1017.6 mb 0.00 in0.0 mm 0.00 in/hr0.0 mm/hr 0.00 in0.0 mm
02:25 PM 57.2°F14.0°C 24.2°F-4.3°C 28% 9.3 mph 15.0 kmh 34.0 mph54.7 kmh 30.05 in1017.6 mb 0.00 in0.0 mm 0.00 in/hr0.0 mm/hr 0.00 in0.0 mm
02:35 PM 56.7°F13.7°C 23.8°F-4.6°C 28% 6.4 mph NW10.3 kmh NW 35.2 mph56.6 kmh 30.05 in1017.6 mb 0.00 in0.0 mm 0.00 in/hr0.0 mm/hr 0.00 in0.0 mm
02:46 PM 55.3°F12.9°C 23.4°F-4.8°C 29% 14.0 mph NW22.5 kmh NW 41.6 mph66.9 kmh 30.05 in1017.6 mb 0.00 in0.0 mm 0.00 in/hr0.0 mm/hr 0.00 in0.0 mm
02:56 PM 54.7°F12.6°C 23.6°F-4.7°C 30% 9.1 mph N14.6 kmh N 36.6 mph58.9 kmh 30.06 in1017.9 mb 0.00 in0.0 mm 0.00 in/hr0.0 mm/hr 0.00 in0.0 mm
03:07 PM 54.3°F12.4°C 22.5°F-5.3°C 29% 11.7 mph NNW18.8 kmh NNW 41.6 mph66.9 kmh 30.06 in1017.9 mb 0.00 in0.0 mm 0.00 in/hr0.0 mm/hr 0.00 in0.0 mm
03:17 PM 53.8°F12.1°C 21.2°F-6.0°C 28% 11.1 mph N17.9 kmh N 52.6 mph84.7 kmh 30.06 in1017.9 mb 0.00 in0.0 mm 0.00 in/hr0.0 mm/hr 0.00 in0.0 mm
03:28 PM 53.6°F12.0°C 21.9°F-5.6°C 29% 12.5 mph NW20.1 kmh NW 36.2 mph58.3 kmh 30.07 in1018.3 mb 0.00 in0.0 mm 0.00 in/hr0.0 mm/hr 0.00 in0.0 mm
03:38 PM 53.1°F11.7°C 19.8°F-6.8°C 27% 14.3 mph NNW23.0 kmh NNW 47.8 mph76.9 kmh 30.07 in1018.3 mb 0.00 in0.0 mm 0.00 in/hr0.0 mm/hr 0.00 in0.0 mm
03:49 PM 52.9°F11.6°C 22.9°F-5.1°C 31% 9.6 mph NNW15.4 kmh NNW 43.8 mph70.5 kmh 30.07 in1018.3 mb 0.00 in0.0 mm 0.00 in/hr0.0 mm/hr 0.00 in0.0 mm
04:00 PM 52.5°F11.4°C 20.9°F-6.2°C 29% 9.6 mph NW15.4 kmh NW 35.6 mph57.3 kmh 30.07 in1018.3 mb 0.00 in0.0 mm 0.00 in/hr0.0 mm/hr 0.00 in0.0 mm
04:10 PM 51.9°F11.1°C 22.0°F-5.6°C 31% 13.3 mph NW21.4 kmh NW 35.2 mph56.6 kmh 30.08 in1018.6 mb 0.00 in0.0 mm 0.00 in/hr0.0 mm/hr 0.00 in0.0 mm
04:21 PM 51.8°F11.0°C 20.4°F-6.4°C 29% 7.7 mph NW12.4 kmh NW 32.2 mph51.8 kmh 30.08 in1018.6 mb 0.00 in0.0 mm 0.00 in/hr0.0 mm/hr 0.00 in0.0 mm
04:31 PM 51.1°F10.6°C 20.5°F-6.4°C 30% 5.3 mph NNE8.5 kmh NNE 29.4 mph47.3 kmh 30.08 in1018.6 mb 0.00 in0.0 mm 0.00 in/hr0.0 mm/hr 0.00 in0.0 mm
04:41 PM 50.7°F10.4°C 20.9°F-6.2°C 31% 4.9 mph 7.9 kmh 21.4 mph34.4 kmh 30.09 in1019.0 mb 0.00 in0.0 mm 0.00 in/hr0.0 mm/hr 0.00 in0.0 mm
04:52 PM 50.2°F10.1°C 20.5°F-6.4°C 31% 6.9 mph NNW11.1 kmh NNW 10.2 mph16.4 kmh 30.10 in1019.3 mb 0.00 in0.0 mm 0.00 in/hr0.0 mm/hr 0.00 in0.0 mm
05:02 PM 49.4°F9.7°C 19.1°F-7.2°C 30% 5.9 mph N9.5 kmh N 27.6 mph44.4 kmh 30.09 in1019.0 mb 0.00 in0.0 mm 0.00 in/hr0.0 mm/hr 0.00 in0.0 mm
05:13 PM 48.7°F9.3°C 19.2°F-7.1°C 31% 3.0 mph NW4.8 kmh NW 29.4 mph47.3 kmh 30.09 in1019.0 mb 0.00 in0.0 mm 0.00 in/hr0.0 mm/hr 0.00 in0.0 mm
05:23 PM 48.3°F9.1°C 19.5°F-6.9°C 32% Calm Calm 7.0 mph11.3 kmh 30.10 in1019.3 mb 0.00 in0.0 mm 0.00 in/hr0.0 mm/hr 0.00 in0.0 mm
05:34 PM 47.5°F8.6°C 20.3°F-6.5°C 34% 1.8 mph WNW2.9 kmh WNW 6.6 mph10.6 kmh 30.11 in1019.6 mb 0.00 in0.0 mm 0.00 in/hr0.0 mm/hr 0.00 in0.0 mm
05:44 PM 46.3°F7.9°C 19.9°F-6.7°C 35% Calm Calm -- 30.10 in1019.3 mb 0.00 in0.0 mm 0.00 in/hr0.0 mm/hr 0.00 in0.0 mm
05:55 PM 45.8°F7.7°C 20.1°F-6.6°C 36% 4.4 mph WNW7.1 kmh WNW 5.8 mph9.3 kmh 30.10 in1019.3 mb 0.00 in0.0 mm 0.00 in/hr0.0 mm/hr 0.00 in0.0 mm
06:05 PM 46.0°F7.8°C 20.3°F-6.5°C 36% 1.2 mph WNW1.9 kmh WNW 5.8 mph9.3 kmh 30.11 in1019.6 mb 0.00 in0.0 mm 0.00 in/hr0.0 mm/hr 0.00 in0.0 mm
06:16 PM 45.7°F7.6°C 20.7°F-6.3°C 37% 4.4 mph NW7.1 kmh NW 5.8 mph9.3 kmh 30.11 in1019.6 mb 0.00 in0.0 mm 0.00 in/hr0.0 mm/hr 0.00 in0.0 mm
06:26 PM 45.4°F7.4°C 21.7°F-5.7°C 39% 4.4 mph WNW7.1 kmh WNW 5.8 mph9.3 kmh 30.12 in1020.0 mb 0.00 in0.0 mm 0.00 in/hr0.0 mm/hr 0.00 in0.0 mm
06:37 PM 45.6°F7.6°C 21.9°F-5.6°C 39% 1.2 mph NW1.9 kmh NW 8.8 mph14.2 kmh 30.12 in1020.0 mb 0.00 in0.0 mm 0.00 in/hr0.0 mm/hr 0.00 in0.0 mm
06:47 PM 45.4°F7.4°C 22.3°F-5.4°C 40% 4.4 mph WNW7.1 kmh WNW 5.8 mph9.3 kmh 30.12 in1020.0 mb 0.00 in0.0 mm 0.00 in/hr0.0 mm/hr 0.00 in0.0 mm
06:58 PM 45.4°F7.4°C 21.6°F-5.8°C 39% 0.9 mph WSW1.4 kmh WSW 1.2 mph1.9 kmh 30.12 in1020.0 mb 0.00 in0.0 mm 0.00 in/hr0.0 mm/hr 0.00 in0.0 mm
07:08 PM 45.1°F7.3°C 21.4°F-5.9°C 39% Calm Calm 1.2 mph1.9 kmh 30.13 in1020.3 mb 0.00 in0.0 mm 0.00 in/hr0.0 mm/hr 0.00 in0.0 mm
07:19 PM 44.9°F7.2°C 21.2°F-6.0°C 39% Calm Calm -- 30.13 in1020.3 mb 0.00 in0.0 mm 0.00 in/hr0.0 mm/hr 0.00 in0.0 mm
07:29 PM 44.5°F6.9°C 20.2°F-6.6°C 38% Calm Calm -- 30.14 in1020.7 mb 0.00 in0.0 mm 0.00 in/hr0.0 mm/hr 0.00 in0.0 mm
07:39 PM 43.6°F6.4°C 20.7°F-6.3°C 40% 0.3 mph W0.5 kmh W 0.4 mph0.6 kmh 30.15 in1021.0 mb 0.00 in0.0 mm 0.00 in/hr0.0 mm/hr 0.00 in0.0 mm
07:50 PM 43.3°F6.3°C 19.8°F-6.8°C 39% 3.0 mph NNW4.8 kmh NNW 4.0 mph6.4 kmh 30.15 in1021.0 mb 0.00 in0.0 mm 0.00 in/hr0.0 mm/hr 0.00 in0.0 mm
08:00 PM 44.2°F6.8°C 19.3°F-7.1°C 37% Calm Calm 4.0 mph6.4 kmh 30.14 in1020.7 mb 0.00 in0.0 mm 0.00 in/hr0.0 mm/hr 0.00 in0.0 mm
08:11 PM 44.5°F6.9°C 19.0°F-7.2°C 36% Calm Calm 4.0 mph6.4 kmh 30.15 in1021.0 mb 0.00 in0.0 mm 0.00 in/hr0.0 mm/hr 0.00 in0.0 mm
08:21 PM 43.8°F6.6°C 19.0°F-7.2°C 37% Calm Calm 1.6 mph2.6 kmh 30.16 in1021.3 mb 0.00 in0.0 mm 0.00 in/hr0.0 mm/hr 0.00 in0.0 mm
08:32 PM 42.7°F5.9°C 19.2°F-7.1°C 39% Calm Calm -- 30.17 in1021.7 mb 0.00 in0.0 mm 0.00 in/hr0.0 mm/hr 0.00 in0.0 mm
08:42 PM 42.2°F5.7°C 20.0°F-6.7°C 41% Calm Calm -- 30.17 in1021.7 mb 0.00 in0.0 mm 0.00 in/hr0.0 mm/hr 0.00 in0.0 mm
08:53 PM 42.7°F5.9°C 19.2°F-7.1°C 39% Calm Calm -- 30.17 in1021.7 mb 0.00 in0.0 mm 0.00 in/hr0.0 mm/hr 0.00 in0.0 mm
09:03 PM 42.9°F6.1°C 18.8°F-7.3°C 38% Calm Calm -- 30.17 in1021.7 mb 0.00 in0.0 mm 0.00 in/hr0.0 mm/hr 0.00 in0.0 mm
09:14 PM 42.7°F5.9°C 18.0°F-7.8°C 37% Calm Calm -- 30.17 in1021.7 mb 0.00 in0.0 mm 0.00 in/hr0.0 mm/hr 0.00 in0.0 mm
09:24 PM 42.2°F5.7°C 16.9°F-8.4°C 36% Calm Calm -- 30.17 in1021.7 mb 0.00 in0.0 mm 0.00 in/hr0.0 mm/hr 0.00 in0.0 mm
09:35 PM 41.8°F5.4°C 14.5°F-9.7°C 33% Calm Calm -- 30.17 in1021.7 mb 0.00 in0.0 mm 0.00 in/hr0.0 mm/hr 0.00 in0.0 mm
09:45 PM 41.7°F5.4°C 12.3°F-10.9°C 30% Calm Calm -- 30.17 in1021.7 mb 0.00 in0.0 mm 0.00 in/hr0.0 mm/hr 0.00 in0.0 mm
09:56 PM 41.8°F5.4°C 10.1°F-12.2°C 27% 2.3 mph NNW3.7 kmh NNW 3.0 mph4.8 kmh 30.18 in1022.0 mb 0.00 in0.0 mm 0.00 in/hr0.0 mm/hr 0.00 in0.0 mm
10:07 PM 42.0°F5.6°C 8.5°F-13.1°C 25% Calm Calm 3.0 mph4.8 kmh 30.18 in1022.0 mb 0.00 in0.0 mm 0.00 in/hr0.0 mm/hr 0.00 in0.0 mm
10:17 PM 40.9°F4.9°C 8.5°F-13.1°C 26% Calm Calm 1.6 mph2.6 kmh 30.18 in1022.0 mb 0.00 in0.0 mm 0.00 in/hr0.0 mm/hr 0.00 in0.0 mm
10:28 PM 39.7°F4.3°C 7.4°F-13.7°C 26% Calm Calm -- 30.19 in1022.4 mb 0.00 in0.0 mm 0.00 in/hr0.0 mm/hr 0.00 in0.0 mm
10:38 PM 38.2°F3.4°C 7.7°F-13.5°C 28% Calm Calm -- 30.18 in1022.0 mb 0.00 in0.0 mm 0.00 in/hr0.0 mm/hr 0.00 in0.0 mm
10:49 PM 37.7°F3.2°C 6.5°F-14.2°C 27% Calm Calm -- 30.19 in1022.4 mb 0.00 in0.0 mm 0.00 in/hr0.0 mm/hr 0.00 in0.0 mm
11:00 PM 37.2°F2.9°C 6.9°F-13.9°C 28% Calm Calm -- 30.19 in1022.4 mb 0.00 in0.0 mm 0.00 in/hr0.0 mm/hr 0.00 in0.0 mm
11:10 PM 36.3°F2.4°C 6.8°F-14.0°C 29% Calm Calm -- 30.19 in1022.4 mb 0.00 in0.0 mm 0.00 in/hr0.0 mm/hr 0.00 in0.0 mm
11:20 PM 35.5°F1.9°C 6.9°F-13.9°C 30% Calm Calm -- 30.19 in1022.4 mb 0.00 in0.0 mm 0.00 in/hr0.0 mm/hr 0.00 in0.0 mm
11:31 PM 34.6°F1.4°C 6.1°F-14.4°C 30% Calm Calm -- 30.19 in1022.4 mb 0.00 in0.0 mm 0.00 in/hr0.0 mm/hr 0.00 in0.0 mm
11:42 PM 33.9°F1.1°C 5.5°F-14.7°C 30% Calm Calm -- 30.19 in1022.4 mb 0.00 in0.0 mm 0.00 in/hr0.0 mm/hr 0.00 in0.0 mm
11:52 PM 34.1°F1.2°C 4.9°F-15.1°C 29% Calm Calm -- 30.19 in1022.4 mb 0.00 in0.0 mm 0.00 in/hr0.0 mm/hr 0.00 in0.0 mm